Time;durP1;ratioP1;P1;durP2;ratioP2;P2;SDS_P1;SDS_P2;PMS_P1;PMS_P2;Temp;Humidity;BMP_temperature;BMP_pressure;BME280_temperature;BME280_humidity;BME280_pressure;Samples;Min_cycle;Max_cycle;Signal;HPM_P1;HPM_P2
2023/05/14 00:00:42;;;;;;;3.40;2.50;;;;;;;20.63;36.09;100225.76;104472;1252;60320;-61
2023/05/14 00:03:10;;;;;;;2.60;2.40;;;;;;;20.65;35.97;100229.20;104276;1272;75644;-61
2023/05/14 00:05:37;;;;;;;;;;;;;;;20.68;36.37;100229.27;104491;1256;70878;-61
2023/05/14 00:08:05;;;;;;;2.20;1.90;;;;;;;20.73;36.83;100234.64;104714;1256;72532;-62
2023/05/14 00:10:32;;;;;;;2.30;2.10;;;;;;;20.73;36.16;100232.69;104356;1256;60106;-61
2023/05/14 00:12:59;;;;;;;2.40;2.20;;;;;;;20.76;36.15;100234.94;104283;1251;59990;-61
2023/05/14 00:15:26;;;;;;;3.70;2.20;;;;;;;20.72;36.50;100233.60;104451;1258;72643;-61
2023/05/14 00:17:53;;;;;;;2.70;2.40;;;;;;;20.70;36.58;100235.77;104354;1266;71173;-61
2023/05/14 00:20:21;;;;;;;2.70;2.50;;;;;;;20.66;36.68;100235.31;104378;1256;71738;-61
2023/05/14 00:22:48;;;;;;;2.80;2.40;;;;;;;20.62;36.52;100234.53;104277;1272;60727;-61
2023/05/14 00:25:15;;;;;;;4.00;2.40;;;;;;;20.62;36.33;100237.73;104408;1263;61876;-61
2023/05/14 00:27:42;;;;;;;3.90;2.40;;;;;;;20.63;36.26;100237.34;104425;1257;72763;-61
2023/05/14 00:30:10;;;;;;;3.90;2.60;;;;;;;20.65;36.56;100237.36;104537;1256;70779;-61
2023/05/14 00:32:37;;;;;;;3.30;2.70;;;;;;;20.70;36.49;100237.16;104421;1256;75407;-61
2023/05/14 00:35:05;;;;;;;3.20;2.80;;;;;;;20.74;36.37;100236.17;104274;1265;60026;-61
2023/05/14 00:37:32;;;;;;;3.00;2.40;;;;;;;20.75;36.30;100246.58;104724;1257;62209;-61
2023/05/14 00:40:00;;;;;;;5.20;2.60;;;;;;;20.75;36.30;100245.02;104520;1257;74151;-62
2023/05/14 00:42:27;;;;;;;7.20;2.70;;;;;;;20.73;35.99;100243.55;104344;1259;69386;-65
2023/05/14 00:44:54;;;;;;;3.00;2.70;;;;;;;20.68;36.02;100242.65;104532;1266;73366;-61
2023/05/14 00:47:21;;;;;;;2.80;2.40;;;;;;;20.63;35.93;100242.13;104231;1266;59991;-61
2023/05/14 00:49:48;;;;;;;4.20;2.50;;;;;;;20.60;36.04;100240.94;104423;1262;60546;-61
2023/05/14 00:52:15;;;;;;;4.30;2.70;;;;;;;20.61;35.96;100236.77;104425;1268;72978;-61
2023/05/14 00:54:44;;;;;;;7.70;3.10;;;;;;;20.58;36.12;100236.06;104446;1257;70685;-61
2023/05/14 00:57:11;;;;;;;4.90;2.70;;;;;;;20.55;36.35;100234.52;104396;1259;73428;-62
2023/05/14 00:59:40;;;;;;;4.20;2.90;;;;;;;20.53;36.27;100238.90;104465;1264;60761;-61
2023/05/14 01:02:07;;;;;;;6.10;2.80;;;;;;;20.53;36.36;100240.55;104589;1256;60853;-61
2023/05/14 01:04:35;;;;;;;5.40;2.80;;;;;;;20.52;36.36;100239.77;104275;1257;74746;-61
2023/05/14 01:07:16;;;;;;;3.70;3.20;;;;;;;20.52;36.66;100239.21;104403;1256;69744;-62
2023/05/14 01:09:47;;;;;;;5.20;2.90;;;;;;;20.51;36.29;100238.19;104383;1257;72792;-61
2023/05/14 01:12:17;;;;;;;23.60;3.10;;;;;;;20.48;36.31;100238.10;104412;1257;60835;-62
2023/05/14 01:14:51;;;;;;;3.80;3.30;;;;;;;20.43;36.62;100239.85;104261;1271;60979;-61
2023/05/14 01:17:19;;;;;;;4.40;3.10;;;;;;;20.41;36.85;100242.15;104483;1258;74328;-62
2023/05/14 01:19:46;;;;;;;4.00;3.20;;;;;;;20.35;37.13;100244.21;104392;1257;69950;-61
2023/05/14 01:22:13;;;;;;;5.20;3.40;;;;;;;20.31;36.86;100248.05;104287;1259;72134;-61
2023/05/14 01:24:41;;;;;;;3.20;2.70;;;;;;;20.31;36.95;100251.79;104518;1256;60963;-61
2023/05/14 01:27:11;;;;;;;4.00;3.00;;;;;;;20.32;36.71;100250.34;104448;1267;61711;-61
2023/05/14 01:29:40;;;;;;;4.10;2.60;;;;;;;20.29;36.74;100242.10;104467;1263;74382;-62
2023/05/14 01:32:07;;;;;;;3.80;3.00;;;;;;;20.27;36.77;100240.48;104429;1256;69265;-61
2023/05/14 01:34:35;;;;;;;3.40;3.00;;;;;;;20.26;36.77;100239.19;104486;1259;72963;-61
2023/05/14 01:37:02;;;;;;;3.30;2.90;;;;;;;20.22;36.74;100237.66;104436;1265;60619;-61
2023/05/14 01:39:31;;;;;;;3.30;2.80;;;;;;;20.19;36.95;100234.83;104546;1262;61006;-62
2023/05/14 01:41:59;;;;;;;3.80;2.80;;;;;;;20.16;37.37;100230.11;104307;1267;74022;-61
2023/05/14 01:44:26;;;;;;;6.30;2.90;;;;;;;20.12;37.07;100230.02;104378;1257;69184;-61
2023/05/14 01:46:53;;;;;;;3.60;3.30;;;;;;;20.14;36.46;100227.26;104530;1264;73605;-62
2023/05/14 01:49:21;;;;;;;5.50;2.90;;;;;;;20.19;36.14;100221.88;104660;1259;60575;-63
2023/05/14 01:51:48;;;;;;;3.60;2.50;;;;;;;20.27;36.01;100223.21;104305;1272;60547;-63
2023/05/14 01:54:15;;;;;;;5.10;2.50;;;;;;;20.32;35.93;100231.59;106387;1250;74352;-63
2023/05/14 01:56:43;;;;;;;2.60;2.30;;;;;;;20.37;36.39;100230.66;108335;1251;70035;-63
2023/05/14 01:59:11;;;;;;;5.00;2.60;;;;;;;20.41;37.30;100228.23;108087;1252;72584;-61
2023/05/14 02:01:38;;;;;;;6.10;2.80;;;;;;;20.48;37.54;100224.21;108157;1251;61233;-61
2023/05/14 02:04:05;;;;;;;3.30;2.90;;;;;;;20.47;37.62;100219.77;108274;1251;60071;-60
2023/05/14 02:06:32;;;;;;;3.70;2.60;;;;;;;20.42;37.78;100218.24;104604;1251;74364;-60
2023/05/14 02:09:00;;;;;;;4.00;2.90;;;;;;;20.34;37.82;100223.39;104570;1266;70430;-59
2023/05/14 02:11:27;;;;;;;2.80;2.60;;;;;;;20.30;37.82;100223.19;104332;1256;73485;-60
2023/05/14 02:13:54;;;;;;;4.10;3.00;;;;;;;20.20;38.04;100221.05;104400;1252;61249;-59
2023/05/14 02:16:21;;;;;;;3.90;3.00;;;;;;;20.13;38.02;100221.23;104306;1257;60513;-60
2023/05/14 02:18:50;;;;;;;3.10;2.80;;;;;;;20.06;38.35;100223.17;104406;1261;74292;-60
2023/05/14 02:21:17;;;;;;;4.40;3.10;;;;;;;20.00;38.36;100218.99;104378;1266;70529;-59
2023/05/14 02:23:45;;;;;;;3.00;2.60;;;;;;;19.96;38.62;100220.20;104436;1256;72182;-60
2023/05/14 02:26:12;;;;;;;3.30;3.00;;;;;;;19.92;38.14;100220.08;104483;1267;60992;-59
2023/05/14 02:28:39;;;;;;;3.70;3.00;;;;;;;19.86;37.80;100219.14;104374;1257;61965;-59
2023/05/14 02:31:06;;;;;;;4.30;3.10;;;;;;;19.81;37.90;100213.92;104430;1257;73536;-59
2023/05/14 02:33:33;;;;;;;3.20;2.70;;;;;;;19.79;37.87;100215.88;104481;1258;69873;-60
2023/05/14 02:36:00;;;;;;;3.50;3.20;;;;;;;19.70;38.03;100213.47;104648;1259;73720;-61
2023/05/14 02:38:27;;;;;;;3.90;2.50;;;;;;;19.63;38.23;100213.09;104370;1258;60926;-61
2023/05/14 02:40:55;;;;;;;2.50;2.30;;;;;;;19.58;38.35;100210.81;104487;1255;62582;-61
2023/05/14 02:43:22;;;;;;;3.40;2.70;;;;;;;19.53;38.34;100217.73;104423;1256;74647;-61
2023/05/14 02:45:51;;;;;;;3.80;3.50;;;;;;;19.53;38.48;100214.34;107736;1251;70659;-61
2023/05/14 02:48:18;;;;;;;3.40;2.90;;;;;;;19.54;38.73;100209.84;105602;1254;73128;-61
2023/05/14 02:50:45;;;;;;;2.90;2.60;;;;;;;19.56;38.35;100209.31;104805;1256;61055;-62
2023/05/14 02:53:13;;;;;;;3.20;2.90;;;;;;;19.56;38.42;100209.48;104290;1253;61018;-62
2023/05/14 02:55:40;;;;;;;3.00;2.70;;;;;;;19.57;38.36;100207.10;104683;1251;74104;-61
2023/05/14 02:58:07;;;;;;;2.90;2.60;;;;;;;19.58;38.41;100208.85;104423;1256;71981;-61
2023/05/14 03:00:34;;;;;;;3.20;2.90;;;;;;;19.59;38.29;100208.75;104796;1256;72779;-61
2023/05/14 03:03:02;;;;;;;4.10;3.10;;;;;;;19.61;38.60;100209.66;104402;1257;60547;-61
2023/05/14 03:05:30;;;;;;;7.50;3.10;;;;;;;19.62;38.53;100209.58;104560;1257;60544;-61
2023/05/14 03:07:58;;;;;;;3.50;2.70;;;;;;;19.63;38.58;100211.51;104426;1257;75019;-61
2023/05/14 03:10:25;;;;;;;5.60;2.80;;;;;;;19.66;38.32;100207.35;104456;1251;69358;-61
2023/05/14 03:12:52;;;;;;;6.50;3.10;;;;;;;19.68;38.20;100206.86;104294;1272;73434;-61
2023/05/14 03:15:19;;;;;;;5.30;2.80;;;;;;;19.71;37.97;100209.20;104369;1267;59923;-61
2023/05/14 03:17:47;;;;;;;4.00;2.80;;;;;;;19.77;37.94;100211.95;104650;1254;60599;-61
2023/05/14 03:20:14;;;;;;;3.30;2.70;;;;;;;19.82;37.85;100213.20;104439;1271;75095;-61
2023/05/14 03:22:41;;;;;;;2.80;2.30;;;;;;;19.87;38.05;100216.02;104323;1258;69102;-61
2023/05/14 03:25:09;;;;;;;2.80;2.40;;;;;;;19.94;38.29;100222.30;104534;1259;73371;-62
2023/05/14 03:27:36;;;;;;;2.90;2.50;;;;;;;20.03;38.53;100222.70;104662;1251;60511;-62
2023/05/14 03:30:04;;;;;;;3.20;2.50;;;;;;;20.09;39.24;100219.08;104647;1251;60969;-62
2023/05/14 03:32:31;;;;;;;3.40;2.90;;;;;;;20.17;39.80;100221.11;104444;1258;76294;-61
2023/05/14 03:34:58;;;;;;;3.10;2.80;;;;;;;20.19;40.06;100219.75;104554;1254;69956;-59
2023/05/14 03:37:25;;;;;;;3.50;2.50;;;;;;;20.23;40.03;100219.27;104522;1253;72772;-58
2023/05/14 03:39:53;;;;;;;3.80;2.70;;;;;;;20.32;39.91;100220.05;104371;1254;62133;-59
2023/05/14 03:42:20;;;;;;;5.30;2.80;;;;;;;20.38;39.85;100220.63;104360;1256;60839;-60
2023/05/14 03:44:47;;;;;;;4.70;2.50;;;;;;;20.45;40.10;100220.44;104487;1254;74811;-60
2023/05/14 03:47:14;;;;;;;3.80;2.40;;;;;;;20.49;39.72;100223.23;104544;1251;72126;-61
2023/05/14 03:49:42;;;;;;;3.10;2.40;;;;;;;20.57;39.45;100226.34;104339;1251;72720;-61
2023/05/14 03:52:10;;;;;;;4.70;2.60;;;;;;;20.62;39.72;100226.87;104724;1254;60443;-60
2023/05/14 03:54:37;;;;;;;3.30;2.40;;;;;;;20.68;40.13;100224.33;104488;1256;60549;-58
2023/05/14 03:57:04;;;;;;;2.70;2.40;;;;;;;20.74;39.78;100226.70;104375;1268;74110;-58
2023/05/14 03:59:31;;;;;;;5.20;2.60;;;;;;;20.80;39.48;100228.60;104507;1256;70042;-59
2023/05/14 04:01:58;;;;;;;3.10;2.70;;;;;;;20.82;39.81;100229.47;104296;1266;73208;-57
2023/05/14 04:04:26;;;;;;;2.70;2.40;;;;;;;20.86;39.50;100223.33;104307;1263;60991;-59
2023/05/14 04:06:53;;;;;;;2.50;2.20;;;;;;;20.93;39.86;100227.40;104294;1261;60951;-59
2023/05/14 04:09:20;;;;;;;2.40;2.10;;;;;;;20.98;39.84;100231.48;104641;1254;73303;-58
2023/05/14 04:11:48;;;;;;;3.50;2.70;;;;;;;21.04;39.66;100230.66;104465;1270;69846;-59
2023/05/14 04:14:15;;;;;;;3.00;2.40;;;;;;;21.08;39.68;100231.81;104334;1251;72912;-58
2023/05/14 04:16:44;;;;;;;2.60;2.40;;;;;;;21.12;39.67;100231.11;104387;1258;60452;-58
2023/05/14 04:19:11;;;;;;;4.50;2.00;;;;;;;21.17;39.73;100229.44;104265;1257;60609;-59
2023/05/14 04:21:39;;;;;;;3.00;2.30;;;;;;;21.24;39.95;100230.90;104411;1257;73615;-60
2023/05/14 04:24:06;;;;;;;5.60;2.10;;;;;;;21.31;39.76;100230.86;104248;1256;69795;-59
2023/05/14 04:26:34;;;;;;;4.00;2.70;;;;;;;21.38;39.13;100230.16;104451;1261;72386;-60
2023/05/14 04:29:02;;;;;;;3.50;2.60;;;;;;;21.44;38.59;100232.74;104424;1251;61911;-60
2023/05/14 04:31:30;;;;;;;2.50;2.20;;;;;;;21.53;38.77;100230.62;104409;1256;60861;-59
2023/05/14 04:33:57;;;;;;;4.80;2.40;;;;;;;21.61;38.89;100228.58;104319;1273;73874;-60
2023/05/14 04:36:25;;;;;;;4.40;2.60;;;;;;;21.73;38.30;100224.69;104290;1256;69220;-60
2023/05/14 04:38:52;;;;;;;2.80;2.60;;;;;;;21.82;37.52;100225.83;104392;1257;72997;-59
2023/05/14 04:41:19;;;;;;;3.10;2.80;;;;;;;21.94;37.41;100223.40;104296;1254;60486;-60
2023/05/14 04:43:48;;;;;;;3.20;2.40;;;;;;;22.07;37.14;100224.65;104371;1256;60574;-60
2023/05/14 04:46:15;;;;;;;2.60;2.30;;;;;;;22.19;37.97;100228.87;104342;1264;73796;-61
2023/05/14 04:48:43;;;;;;;4.70;2.40;;;;;;;22.29;39.14;100229.83;108238;1253;69637;-60
2023/05/14 04:51:10;;;;;;;2.60;2.20;;;;;;;22.40;39.56;100229.48;106458;1253;74168;-60
2023/05/14 04:53:37;;;;;;;2.50;2.30;;;;;;;22.50;39.11;100231.85;104380;1253;61283;-60
2023/05/14 04:56:04;;;;;;;3.50;2.50;;;;;;;22.62;38.77;100229.04;104582;1249;60556;-60
2023/05/14 04:58:31;;;;;;;4.60;2.20;;;;;;;22.77;38.77;100230.81;104619;1250;76073;-59
2023/05/14 05:01:03;;;;;;;2.50;2.30;;;;;;;22.89;39.23;100228.23;104646;1267;69850;-58
2023/05/14 05:03:31;;;;;;;2.90;2.40;;;;;;;22.96;39.43;100227.25;104746;1252;73059;-60
2023/05/14 05:05:58;;;;;;;2.50;2.20;;;;;;;22.98;39.19;100223.14;104275;1255;60604;-59
2023/05/14 05:08:25;;;;;;;5.00;2.40;;;;;;;23.04;39.20;100224.86;104344;1250;61598;-60
2023/05/14 05:10:52;;;;;;;3.10;2.30;;;;;;;23.11;38.69;100223.91;105001;1256;74486;-59
2023/05/14 05:13:19;;;;;;;3.20;2.30;;;;;;;23.16;38.33;100226.30;104487;1261;70412;-60
2023/05/14 05:15:46;;;;;;;2.30;2.00;;;;;;;23.21;38.27;100222.09;104265;1256;72657;-59
2023/05/14 05:18:14;;;;;;;8.70;2.60;;;;;;;23.28;38.33;100223.98;104561;1257;60442;-60
2023/05/14 05:20:41;;;;;;;3.20;2.40;;;;;;;23.38;38.57;100223.88;104391;1256;60486;-60
2023/05/14 05:23:08;;;;;;;4.60;2.40;;;;;;;23.41;38.39;100220.89;104492;1266;74111;-60
2023/05/14 05:25:36;;;;;;;2.40;2.20;;;;;;;23.49;38.95;100222.00;104349;1256;70840;-60
2023/05/14 05:28:03;;;;;;;2.80;2.30;;;;;;;23.55;40.58;100226.80;104226;1258;72203;-60
2023/05/14 05:30:30;;;;;;;2.40;2.20;;;;;;;23.61;40.52;100225.95;104403;1257;60613;-60
2023/05/14 05:32:58;;;;;;;3.50;2.90;;;;;;;23.73;40.98;100226.51;104476;1258;61144;-62
2023/05/14 05:35:25;;;;;;;2.60;2.40;;;;;;;23.83;40.18;100225.31;104505;1254;73493;-61
2023/05/14 05:37:52;;;;;;;3.40;2.90;;;;;;;23.92;40.06;100218.98;104424;1251;72065;-61
2023/05/14 05:40:19;;;;;;;3.50;2.60;;;;;;;24.03;39.58;100221.02;104256;1267;71869;-61
2023/05/14 05:42:46;;;;;;;2.60;2.40;;;;;;;24.11;39.05;100223.02;104254;1257;60789;-61
2023/05/14 05:45:14;;;;;;;3.20;2.80;;;;;;;24.19;38.21;100222.67;104401;1258;60941;-61
2023/05/14 05:47:41;;;;;;;2.70;2.50;;;;;;;24.26;37.99;100218.77;104497;1255;76072;-61
2023/05/14 05:50:09;;;;;;;2.40;2.20;;;;;;;24.35;37.98;100222.23;104599;1253;70238;-62
2023/05/14 05:52:37;;;;;;;3.80;2.10;;;;;;;24.44;38.36;100217.44;104612;1257;72901;-62
2023/05/14 05:55:04;;;;;;;2.80;2.50;;;;;;;24.55;37.91;100217.77;104622;1259;61708;-62
2023/05/14 05:57:31;;;;;;;;;;;;;;;24.69;37.80;100218.55;104379;1257;61581;-61
2023/05/14 05:59:59;;;;;;;2.30;2.10;;;;;;;24.86;36.68;100222.95;104442;1255;73979;-60
2023/05/14 06:02:26;;;;;;;2.30;1.90;;;;;;;24.93;36.20;100226.77;104701;1252;69681;-62
2023/05/14 06:04:53;;;;;;;3.50;2.30;;;;;;;25.02;36.62;100226.74;104561;1253;73474;-61
2023/05/14 06:07:21;;;;;;;2.60;2.40;;;;;;;25.13;36.34;100226.50;104461;1256;60894;-62
2023/05/14 06:09:48;;;;;;;2.50;2.00;;;;;;;25.25;36.34;100225.20;104664;1252;61671;-59
2023/05/14 06:12:15;;;;;;;2.70;2.10;;;;;;;25.39;35.97;100221.55;104454;1256;74910;-59
2023/05/14 06:14:42;;;;;;;2.20;2.00;;;;;;;25.50;35.56;100225.70;104390;1252;70570;-60
2023/05/14 06:17:10;;;;;;;5.30;2.70;;;;;;;25.59;35.30;100227.67;104816;1255;72810;-60
2023/05/14 06:19:37;;;;;;;2.50;2.20;;;;;;;25.69;34.90;100227.80;104444;1257;60923;-61
2023/05/14 06:22:05;;;;;;;4.00;2.30;;;;;;;25.78;34.75;100228.20;104465;1254;61505;-60
2023/05/14 06:24:32;;;;;;;2.30;1.90;;;;;;;25.90;34.75;100225.05;106763;1253;74518;-60
2023/05/14 06:26:59;;;;;;;2.30;2.10;;;;;;;25.99;33.97;100226.46;104873;1250;69970;-62
2023/05/14 06:29:27;;;;;;;5.20;2.70;;;;;;;26.10;33.48;100223.79;105060;1253;72358;-60
2023/05/14 06:32:00;;;;;;;2.90;2.60;;;;;;;26.17;33.77;100226.41;104387;1254;63334;-61
2023/05/14 06:34:27;;;;;;;3.90;2.30;;;;;;;26.23;33.69;100223.78;104761;1256;60731;-62
2023/05/14 06:36:54;;;;;;;5.10;2.60;;;;;;;26.32;33.87;100220.04;104408;1250;74075;-60
2023/05/14 06:39:22;;;;;;;2.40;2.20;;;;;;;26.44;33.71;100215.05;104405;1256;69930;-61
2023/05/14 06:41:50;;;;;;;2.60;2.40;;;;;;;26.56;33.53;100215.41;104325;1262;72865;-60
2023/05/14 06:44:18;;;;;;;2.50;2.30;;;;;;;26.66;33.38;100214.53;104416;1251;60965;-61
2023/05/14 06:46:45;;;;;;;3.50;2.40;;;;;;;26.74;32.97;100215.80;104717;1251;60813;-61
2023/05/14 06:49:12;;;;;;;3.10;2.50;;;;;;;26.81;32.88;100213.55;104562;1256;75574;-62
2023/05/14 06:51:40;;;;;;;3.60;2.40;;;;;;;26.87;32.62;100215.20;104410;1257;70915;-61
2023/05/14 06:54:07;;;;;;;3.30;2.50;;;;;;;27.06;32.82;100213.62;104984;1263;72880;-62
2023/05/14 06:56:35;;;;;;;2.80;2.60;;;;;;;27.08;32.41;100216.15;104461;1251;60606;-60
2023/05/14 06:59:02;;;;;;;2.80;2.40;;;;;;;27.12;32.69;100219.69;105173;1263;63001;-60
2023/05/14 07:01:29;;;;;;;3.80;2.30;;;;;;;27.18;32.62;100212.73;104339;1256;72831;-60
2023/05/14 07:03:56;;;;;;;3.00;2.50;;;;;;;27.24;32.51;100213.03;104435;1256;70905;-61
2023/05/14 07:06:23;;;;;;;3.00;2.40;;;;;;;27.33;32.58;100206.30;104634;1254;73656;-62
2023/05/14 07:08:50;;;;;;;4.50;2.70;;;;;;;27.47;32.15;100208.34;104809;1251;60491;-62
2023/05/14 07:11:18;;;;;;;5.80;2.70;;;;;;;27.57;31.92;100205.24;104618;1252;60894;-63
2023/05/14 07:13:45;;;;;;;2.70;2.50;;;;;;;27.67;31.67;100207.12;104386;1252;73767;-62
2023/05/14 07:16:12;;;;;;;3.30;2.40;;;;;;;27.66;31.90;100206.80;104949;1252;70133;-65
2023/05/14 07:18:39;;;;;;;2.20;2.00;;;;;;;27.68;31.43;100205.26;104373;1258;72227;-62
2023/05/14 07:21:07;;;;;;;8.10;2.10;;;;;;;27.69;30.84;100201.45;105047;1253;60624;-63
2023/05/14 07:23:35;;;;;;;3.20;2.30;;;;;;;27.79;30.42;100201.85;104416;1256;60812;-62
2023/05/14 07:26:03;;;;;;;4.70;2.00;;;;;;;27.86;30.67;100197.70;105771;1251;73225;-63
2023/05/14 07:28:30;;;;;;;3.40;2.20;;;;;;;27.90;29.68;100193.80;108155;1250;69270;-63
2023/05/14 07:30:58;;;;;;;2.30;2.10;;;;;;;28.01;29.62;100192.55;104802;1252;73057;-63
2023/05/14 07:33:25;;;;;;;;;;;;;;;28.18;29.54;100196.45;105393;1254;60709;-63
2023/05/14 07:35:53;;;;;;;1.90;1.70;;;;;;;28.32;28.16;100192.20;104418;1256;62359;-63
2023/05/14 07:38:20;;;;;;;2.00;1.90;;;;;;;28.40;28.79;100194.23;105043;1253;74541;-62
2023/05/14 07:40:48;;;;;;;4.80;1.80;;;;;;;28.49;28.57;100186.48;104472;1261;70395;-62
2023/05/14 07:43:16;;;;;;;2.00;1.80;;;;;;;28.56;28.18;100184.84;104434;1260;73146;-62
2023/05/14 07:45:43;;;;;;;1.90;1.80;;;;;;;28.48;27.85;100185.27;104425;1256;60958;-63
2023/05/14 07:48:11;;;;;;;3.50;1.70;;;;;;;28.55;26.97;100181.11;104559;1252;60419;-64
2023/05/14 07:50:38;;;;;;;4.10;1.70;;;;;;;28.59;26.98;100182.70;104454;1256;74630;-62
2023/05/14 07:53:05;;;;;;;2.20;2.00;;;;;;;28.67;27.55;100181.28;104518;1257;69739;-63
2023/05/14 07:55:33;;;;;;;2.20;1.50;;;;;;;28.77;26.69;100183.15;104274;1258;74828;-62
2023/05/14 07:58:00;;;;;;;2.20;1.80;;;;;;;28.88;27.03;100184.44;104517;1253;60897;-61
2023/05/14 08:00:27;;;;;;;3.00;2.00;;;;;;;28.96;27.10;100186.45;104385;1251;60509;-62
2023/05/14 08:02:54;;;;;;;1.90;1.80;;;;;;;29.04;26.80;100185.72;104481;1257;74374;-62
2023/05/14 08:05:22;;;;;;;2.20;1.70;;;;;;;29.12;26.16;100183.00;104664;1255;70840;-63
2023/05/14 08:07:49;;;;;;;1.80;1.70;;;;;;;29.19;26.04;100180.57;104541;1257;74302;-62
2023/05/14 08:10:16;;;;;;;;;;;;;;;29.22;25.83;100176.27;104710;1256;60645;-62
2023/05/14 08:12:44;;;;;;;2.60;1.50;;;;;;;29.26;24.76;100171.02;104568;1256;60499;-63
2023/05/14 08:15:11;;;;;;;1.80;1.70;;;;;;;29.28;25.15;100168.10;104437;1264;73726;-62
2023/05/14 08:17:38;;;;;;;3.00;1.70;;;;;;;29.36;25.36;100168.98;105099;1266;70053;-63
2023/05/14 08:20:06;;;;;;;5.70;1.70;;;;;;;29.46;25.73;100167.48;104464;1253;72869;-60
2023/05/14 08:22:33;;;;;;;3.00;2.00;;;;;;;29.52;25.60;100166.34;104596;1253;62485;-60
2023/05/14 08:25:02;;;;;;;5.90;2.20;;;;;;;29.68;25.20;100163.17;104625;1251;60646;-61
2023/05/14 08:27:29;;;;;;;1.90;1.80;;;;;;;29.71;25.32;100160.83;104625;1264;76598;-60
2023/05/14 08:29:56;;;;;;;2.10;1.90;;;;;;;29.70;25.20;100158.60;104382;1267;71252;-60
2023/05/14 08:32:24;;;;;;;2.50;1.90;;;;;;;29.69;25.14;100154.61;104611;1251;73727;-61
2023/05/14 08:34:51;;;;;;;2.30;1.80;;;;;;;29.74;25.31;100152.02;104579;1253;60926;-61
2023/05/14 08:37:18;;;;;;;2.20;1.90;;;;;;;29.82;25.43;100147.28;104414;1258;60683;-61
2023/05/14 08:39:46;;;;;;;3.50;2.30;;;;;;;29.91;24.37;100144.65;104054;1257;458701;-61
2023/05/14 08:43:12;;;;;;;3.60;2.20;;;;;;;29.19;26.04;100145.33;101165;1296;617544;-61
2023/05/14 08:45:39;;;;;;;2.30;2.10;;;;;;;30.13;24.75;100134.87;103482;1266;59903;-65
2023/05/14 08:48:07;;;;;;;3.10;2.00;;;;;;;30.46;24.73;100136.40;103724;1270;60942;-61
2023/05/14 08:50:34;;;;;;;2.30;2.10;;;;;;;30.57;24.86;100132.36;103359;1270;71752;-60
2023/05/14 08:53:01;;;;;;;2.50;2.20;;;;;;;30.57;24.29;100133.65;103765;1269;70046;-61
2023/05/14 08:55:32;;;;;;;5.20;2.10;;;;;;;30.43;24.43;100134.59;104095;1261;316033;-61
2023/05/14 08:57:59;;;;;;;3.90;2.00;;;;;;;30.45;24.56;100131.95;104432;1252;59664;-61
2023/05/14 09:00:25;;;;;;;2.50;2.00;;;;;;;30.46;24.18;100129.55;108179;1255;60178;-62
2023/05/14 09:02:53;;;;;;;2.10;1.90;;;;;;;30.45;24.28;100127.41;108463;1251;71394;-61
2023/05/14 09:05:20;;;;;;;1.60;1.50;;;;;;;30.45;23.74;100127.45;108474;1254;70056;-62
2023/05/14 09:07:47;;;;;;;4.10;1.70;;;;;;;30.47;23.82;100123.60;107912;1251;73998;-63
2023/05/14 09:10:14;;;;;;;2.10;1.90;;;;;;;30.32;24.08;100121.27;108416;1252;60320;-61
2023/05/14 09:12:42;;;;;;;2.10;1.90;;;;;;;30.24;24.15;100121.66;108192;1251;60443;-61
2023/05/14 09:15:09;;;;;;;4.90;2.50;;;;;;;30.24;24.47;100117.67;104602;1266;74255;-60
2023/05/14 09:17:36;;;;;;;1.50;1.40;;;;;;;30.32;24.03;100111.65;104368;1256;68617;-60
2023/05/14 09:20:03;;;;;;;2.40;1.70;;;;;;;30.47;23.32;100104.27;104315;1269;71834;-61
2023/05/14 09:22:31;;;;;;;;;;;;;;;30.62;23.39;100101.88;104367;1254;60515;-60
2023/05/14 09:25:08;;;;;;;2.00;1.90;;;;;;;30.80;22.87;100095.59;104361;1256;59864;-60
2023/05/14 09:27:36;;;;;;;2.60;1.90;;;;;;;30.87;22.59;100091.15;104521;1254;72134;-61
2023/05/14 09:30:07;;;;;;;2.40;1.70;;;;;;;30.93;21.92;100089.12;104322;1261;69966;-60
2023/05/14 09:32:42;;;;;;;6.00;1.80;;;;;;;31.02;22.63;100086.41;104365;1272;73965;-60
2023/05/14 09:35:21;;;;;;;1.80;1.60;;;;;;;31.19;22.69;100084.41;104466;1260;59786;-61
2023/05/14 09:37:50;;;;;;;1.70;1.60;;;;;;;31.36;22.38;100080.82;104398;1251;60366;-60
2023/05/14 09:40:18;;;;;;;1.80;1.70;;;;;;;31.45;22.60;100079.02;104632;1258;73025;-61
2023/05/14 09:42:49;;;;;;;2.90;2.10;;;;;;;31.55;22.62;100075.42;104455;1260;69684;-61
2023/05/14 09:45:16;;;;;;;2.90;2.00;;;;;;;31.65;22.55;100076.38;104623;1259;72891;-61
2023/05/14 09:47:43;;;;;;;3.40;2.00;;;;;;;31.62;21.78;100076.72;104423;1270;60345;-60
2023/05/14 09:50:11;;;;;;;;;;;;;;;31.50;22.46;100073.52;104581;1256;59769;-61
2023/05/14 09:52:38;;;;;;;;;;;;;;;31.44;22.13;100075.27;104500;1253;72472;-61
2023/05/14 09:55:06;;;;;;;;;;;;;;;31.38;22.20;100077.77;104922;1254;68801;-60
2023/05/14 09:57:34;;;;;;;1.90;1.80;;;;;;;31.26;22.91;100074.98;104495;1257;72118;-60
2023/05/14 10:00:01;;;;;;;2.00;1.80;;;;;;;31.10;22.44;100076.45;104484;1262;61407;-61
2023/05/14 10:02:39;;;;;;;3.00;1.50;;;;;;;31.07;22.14;100076.24;104709;1253;60643;-60
2023/05/14 10:05:07;;;;;;;4.20;2.10;;;;;;;31.03;22.78;100076.48;104867;1251;72524;-60
2023/05/14 10:07:40;;;;;;;2.50;2.30;;;;;;;31.03;22.24;100071.67;104626;1256;68889;-60
2023/05/14 10:10:10;;;;;;;2.30;1.60;;;;;;;31.07;22.14;100074.27;104375;1257;72215;-60
2023/05/14 10:12:38;;;;;;;5.20;2.10;;;;;;;31.07;22.50;100071.86;104390;1251;61045;-60
2023/05/14 10:15:09;;;;;;;2.60;1.80;;;;;;;31.07;22.15;100069.73;105622;1252;60355;-60
2023/05/14 10:17:36;;;;;;;2.00;1.70;;;;;;;31.10;22.20;100071.05;104925;1253;71977;-60
2023/05/14 10:20:04;;;;;;;2.10;1.50;;;;;;;31.02;22.06;100063.10;104556;1257;69450;-61
2023/05/14 10:22:33;;;;;;;3.20;1.80;;;;;;;31.01;22.39;100063.22;104382;1257;72094;-61
2023/05/14 10:25:01;;;;;;;3.30;2.10;;;;;;;30.97;22.59;100059.66;105042;1252;60320;-61
2023/05/14 10:27:28;;;;;;;;;;;;;;;30.96;22.05;100059.14;104603;1258;60531;-61
2023/05/14 10:29:55;;;;;;;2.30;1.60;;;;;;;30.99;21.01;100058.92;104414;1257;72151;-60
2023/05/14 10:32:24;;;;;;;3.00;1.50;;;;;;;30.98;21.42;100063.05;104413;1268;68528;-61
2023/05/14 10:34:52;;;;;;;3.00;1.50;;;;;;;31.05;21.93;100061.27;104548;1261;72665;-62
2023/05/14 10:37:24;;;;;;;1.80;1.70;;;;;;;31.08;21.82;100066.73;104363;1254;60545;-63
2023/05/14 10:39:52;;;;;;;1.80;1.70;;;;;;;31.04;21.67;100060.84;105245;1254;59849;-62
2023/05/14 10:42:21;;;;;;;2.70;1.80;;;;;;;31.02;21.53;100063.44;104504;1254;72216;-61
2023/05/14 10:44:57;;;;;;;1.70;1.60;;;;;;;30.99;21.39;100061.44;104439;1270;69227;-60
2023/05/14 10:47:25;;;;;;;3.40;1.90;;;;;;;30.91;21.35;100060.98;104386;1251;71831;-62
2023/05/14 10:50:02;;;;;;;2.90;1.70;;;;;;;30.85;22.03;100064.42;104991;1254;60122;-61
2023/05/14 10:52:30;;;;;;;4.50;1.90;;;;;;;30.79;24.23;100062.23;104603;1257;59866;-65
2023/05/14 10:54:58;;;;;;;1.80;1.60;;;;;;;30.67;23.64;100059.84;104574;1259;73370;-61
2023/05/14 10:57:30;;;;;;;3.10;1.90;;;;;;;30.65;23.47;100059.09;105904;1253;69562;-59
2023/05/14 10:59:58;;;;;;;2.20;1.70;;;;;;;30.62;24.15;100056.80;105782;1257;72008;-59
2023/05/14 11:02:27;;;;;;;2.00;1.70;;;;;;;30.64;23.25;100053.77;104528;1253;61541;-61
2023/05/14 11:04:58;;;;;;;2.80;1.90;;;;;;;30.64;22.95;100052.27;104625;1256;60209;-60
2023/05/14 11:07:28;;;;;;;3.60;1.70;;;;;;;30.64;23.05;100052.86;104499;1267;72078;-61
2023/05/14 11:10:00;;;;;;;3.70;1.90;;;;;;;30.67;23.86;100050.89;104325;1260;69515;-60
2023/05/14 11:12:28;;;;;;;3.00;1.90;;;;;;;30.53;25.34;100053.65;104346;1257;72733;-61
2023/05/14 11:14:56;;;;;;;2.30;1.80;;;;;;;30.39;24.42;100057.36;104317;1254;59778;-60
2023/05/14 11:17:25;;;;;;;3.20;1.90;;;;;;;30.38;24.35;100054.77;105313;1254;60428;-61
2023/05/14 11:19:52;;;;;;;2.30;2.10;;;;;;;30.35;24.65;100054.67;104492;1256;74254;-60
2023/05/14 11:22:20;;;;;;;5.40;2.20;;;;;;;30.22;24.18;100051.48;104660;1257;68688;-61